<?xml version="1.0" encoding="UTF-8" standalone="no" ?>
<gpx xmlns="http://www.topografix.com/GPX/1/1" xmlns:xsi="http://www.w3.org/2001/XMLSchema-instance" xsi:schemaLocation="http://www.topografix.com/GPX/1/1 http://www.topografix.com/GPX/1/1/gpx.xsd" version="1.1" creator="VisuGPX - https://www.visugpx.com">
  <metadata>
    <name>Saint-martin-en-haut , Ste catherine , le Tacot</name>
    <desc><![CDATA[sur petite route,  remontée à St Martin par la route du Tacot (train reliant St-Symphorien à Messimy )]]></desc>
  </metadata>
  <trk>
    <name><![CDATA[St-martin-en-haut , Ste catherine , le Tacot]]></name>
    <trkseg>
      <trkpt lat="45.65881" lon="4.56411">
        <ele>727</ele>
        <time>2022-07-26T08:04:53Z</time>
      </trkpt>
      <trkpt lat="45.65867" lon="4.56469">
        <ele>727</ele>
        <time>2022-07-26T08:05:01Z</time>
      </trkpt>
      <trkpt lat="45.65817" lon="4.56579">
        <ele>728</ele>
        <time>2022-07-26T08:05:18Z</time>
      </trkpt>
      <trkpt lat="45.658" lon="4.56602">
        <ele>728</ele>
        <time>2022-07-26T08:05:22Z</time>
      </trkpt>
      <trkpt lat="45.65754" lon="4.56645">
        <ele>727</ele>
        <time>2022-07-26T08:05:32Z</time>
      </trkpt>
      <trkpt lat="45.65739" lon="4.56646">
        <ele>728</ele>
        <time>2022-07-26T08:05:34Z</time>
      </trkpt>
      <trkpt lat="45.65692" lon="4.56622">
        <ele>734</ele>
        <time>2022-07-26T08:05:43Z</time>
      </trkpt>
      <trkpt lat="45.65677" lon="4.56621">
        <ele>735</ele>
        <time>2022-07-26T08:05:46Z</time>
      </trkpt>
      <trkpt lat="45.65646" lon="4.56652">
        <ele>739</ele>
        <time>2022-07-26T08:05:53Z</time>
      </trkpt>
      <trkpt lat="45.65603" lon="4.56776">
        <ele>740</ele>
        <time>2022-07-26T08:06:10Z</time>
      </trkpt>
      <trkpt lat="45.65603" lon="4.56793">
        <ele>740</ele>
        <time>2022-07-26T08:06:12Z</time>
      </trkpt>
      <trkpt lat="45.65621" lon="4.56879">
        <ele>738</ele>
        <time>2022-07-26T08:06:24Z</time>
      </trkpt>
      <trkpt lat="45.65618" lon="4.56894">
        <ele>739</ele>
        <time>2022-07-26T08:06:25Z</time>
      </trkpt>
      <trkpt lat="45.65586" lon="4.56925">
        <ele>741</ele>
        <time>2022-07-26T08:06:32Z</time>
      </trkpt>
      <trkpt lat="45.65577" lon="4.5691">
        <ele>742</ele>
        <time>2022-07-26T08:06:35Z</time>
      </trkpt>
      <trkpt lat="45.65437" lon="4.56908">
        <ele>753</ele>
        <time>2022-07-26T08:07:00Z</time>
      </trkpt>
      <trkpt lat="45.65364" lon="4.56917">
        <ele>758</ele>
        <time>2022-07-26T08:07:13Z</time>
      </trkpt>
      <trkpt lat="45.65348" lon="4.5693">
        <ele>758</ele>
        <time>2022-07-26T08:07:16Z</time>
      </trkpt>
      <trkpt lat="45.65306" lon="4.56993">
        <ele>756</ele>
        <time>2022-07-26T08:07:27Z</time>
      </trkpt>
      <trkpt lat="45.65272" lon="4.57013">
        <ele>760</ele>
        <time>2022-07-26T08:07:34Z</time>
      </trkpt>
      <trkpt lat="45.65257" lon="4.57032">
        <ele>762</ele>
        <time>2022-07-26T08:07:37Z</time>
      </trkpt>
      <trkpt lat="45.65255" lon="4.57044">
        <ele>762</ele>
        <time>2022-07-26T08:07:39Z</time>
      </trkpt>
      <trkpt lat="45.65264" lon="4.57067">
        <ele>762</ele>
        <time>2022-07-26T08:07:42Z</time>
      </trkpt>
      <trkpt lat="45.65305" lon="4.57119">
        <ele>761</ele>
        <time>2022-07-26T08:07:52Z</time>
      </trkpt>
      <trkpt lat="45.65313" lon="4.57138">
        <ele>761</ele>
        <time>2022-07-26T08:07:55Z</time>
      </trkpt>
      <trkpt lat="45.65326" lon="4.57201">
        <ele>764</ele>
        <time>2022-07-26T08:08:03Z</time>
      </trkpt>
      <trkpt lat="45.65325" lon="4.57221">
        <ele>765</ele>
        <time>2022-07-26T08:08:05Z</time>
      </trkpt>
      <trkpt lat="45.65309" lon="4.57309">
        <ele>769</ele>
        <time>2022-07-26T08:08:17Z</time>
      </trkpt>
      <trkpt lat="45.65272" lon="4.57386">
        <ele>774</ele>
        <time>2022-07-26T08:08:28Z</time>
      </trkpt>
      <trkpt lat="45.65266" lon="4.57402">
        <ele>775</ele>
        <time>2022-07-26T08:08:31Z</time>
      </trkpt>
      <trkpt lat="45.65204" lon="4.57589">
        <ele>782</ele>
        <time>2022-07-26T08:08:56Z</time>
      </trkpt>
      <trkpt lat="45.65192" lon="4.57605">
        <ele>783</ele>
        <time>2022-07-26T08:08:59Z</time>
      </trkpt>
      <trkpt lat="45.65166" lon="4.57617">
        <ele>785</ele>
        <time>2022-07-26T08:09:04Z</time>
      </trkpt>
      <trkpt lat="45.65154" lon="4.57617">
        <ele>785</ele>
        <time>2022-07-26T08:09:06Z</time>
      </trkpt>
      <trkpt lat="45.6513" lon="4.57608">
        <ele>786</ele>
        <time>2022-07-26T08:09:11Z</time>
      </trkpt>
      <trkpt lat="45.65063" lon="4.57514">
        <ele>793</ele>
        <time>2022-07-26T08:09:27Z</time>
      </trkpt>
      <trkpt lat="45.65051" lon="4.57501">
        <ele>794</ele>
        <time>2022-07-26T08:09:30Z</time>
      </trkpt>
      <trkpt lat="45.65022" lon="4.57493">
        <ele>795</ele>
        <time>2022-07-26T08:09:36Z</time>
      </trkpt>
      <trkpt lat="45.65013" lon="4.57498">
        <ele>795</ele>
        <time>2022-07-26T08:09:37Z</time>
      </trkpt>
      <trkpt lat="45.64999" lon="4.57516">
        <ele>794</ele>
        <time>2022-07-26T08:09:41Z</time>
      </trkpt>
      <trkpt lat="45.64995" lon="4.57529">
        <ele>794</ele>
        <time>2022-07-26T08:09:42Z</time>
      </trkpt>
      <trkpt lat="45.64921" lon="4.57756">
        <ele>802</ele>
        <time>2022-07-26T08:10:14Z</time>
      </trkpt>
      <trkpt lat="45.64906" lon="4.57904">
        <ele>804</ele>
        <time>2022-07-26T08:10:32Z</time>
      </trkpt>
      <trkpt lat="45.64903" lon="4.57925">
        <ele>804</ele>
        <time>2022-07-26T08:10:35Z</time>
      </trkpt>
      <trkpt lat="45.64886" lon="4.57976">
        <ele>806</ele>
        <time>2022-07-26T08:10:42Z</time>
      </trkpt>
      <trkpt lat="45.64761" lon="4.5817">
        <ele>811</ele>
        <time>2022-07-26T08:11:15Z</time>
      </trkpt>
      <trkpt lat="45.64732" lon="4.58201">
        <ele>812</ele>
        <time>2022-07-26T08:11:21Z</time>
      </trkpt>
      <trkpt lat="45.64625" lon="4.5827">
        <ele>814</ele>
        <time>2022-07-26T08:11:42Z</time>
      </trkpt>
      <trkpt lat="45.64502" lon="4.58387">
        <ele>818</ele>
        <time>2022-07-26T08:12:08Z</time>
      </trkpt>
      <trkpt lat="45.64385" lon="4.58538">
        <ele>827</ele>
        <time>2022-07-26T08:12:36Z</time>
      </trkpt>
      <trkpt lat="45.64367" lon="4.58559">
        <ele>828</ele>
        <time>2022-07-26T08:12:41Z</time>
      </trkpt>
      <trkpt lat="45.6435" lon="4.58569">
        <ele>828</ele>
        <time>2022-07-26T08:12:44Z</time>
      </trkpt>
      <trkpt lat="45.64342" lon="4.58569">
        <ele>828</ele>
        <time>2022-07-26T08:12:45Z</time>
      </trkpt>
      <trkpt lat="45.64323" lon="4.58548">
        <ele>829</ele>
        <time>2022-07-26T08:12:50Z</time>
      </trkpt>
      <trkpt lat="45.64275" lon="4.584">
        <ele>831</ele>
        <time>2022-07-26T08:13:10Z</time>
      </trkpt>
      <trkpt lat="45.64269" lon="4.58356">
        <ele>832</ele>
        <time>2022-07-26T08:13:16Z</time>
      </trkpt>
      <trkpt lat="45.64281" lon="4.5815">
        <ele>833</ele>
        <time>2022-07-26T08:13:41Z</time>
      </trkpt>
      <trkpt lat="45.64278" lon="4.58119">
        <ele>834</ele>
        <time>2022-07-26T08:13:45Z</time>
      </trkpt>
      <trkpt lat="45.6426" lon="4.58034">
        <ele>837</ele>
        <time>2022-07-26T08:13:56Z</time>
      </trkpt>
      <trkpt lat="45.64249" lon="4.58014">
        <ele>838</ele>
        <time>2022-07-26T08:14:00Z</time>
      </trkpt>
      <trkpt lat="45.64163" lon="4.57893">
        <ele>842</ele>
        <time>2022-07-26T08:14:21Z</time>
      </trkpt>
      <trkpt lat="45.64135" lon="4.57839">
        <ele>839</ele>
        <time>2022-07-26T08:14:29Z</time>
      </trkpt>
      <trkpt lat="45.64126" lon="4.57832">
        <ele>838</ele>
        <time>2022-07-26T08:14:31Z</time>
      </trkpt>
      <trkpt lat="45.64098" lon="4.57828">
        <ele>839</ele>
        <time>2022-07-26T08:14:36Z</time>
      </trkpt>
      <trkpt lat="45.64053" lon="4.57845">
        <ele>843</ele>
        <time>2022-07-26T08:14:45Z</time>
      </trkpt>
      <trkpt lat="45.63922" lon="4.57847">
        <ele>850</ele>
        <time>2022-07-26T08:15:08Z</time>
      </trkpt>
      <trkpt lat="45.63905" lon="4.57847">
        <ele>850</ele>
        <time>2022-07-26T08:15:11Z</time>
      </trkpt>
      <trkpt lat="45.63851" lon="4.57832">
        <ele>848</ele>
        <time>2022-07-26T08:15:21Z</time>
      </trkpt>
      <trkpt lat="45.63814" lon="4.57833">
        <ele>846</ele>
        <time>2022-07-26T08:15:27Z</time>
      </trkpt>
      <trkpt lat="45.63799" lon="4.57841">
        <ele>846</ele>
        <time>2022-07-26T08:15:30Z</time>
      </trkpt>
      <trkpt lat="45.63773" lon="4.57867">
        <ele>846</ele>
        <time>2022-07-26T08:15:36Z</time>
      </trkpt>
      <trkpt lat="45.63764" lon="4.57885">
        <ele>847</ele>
        <time>2022-07-26T08:15:39Z</time>
      </trkpt>
      <trkpt lat="45.63744" lon="4.57946">
        <ele>850</ele>
        <time>2022-07-26T08:15:47Z</time>
      </trkpt>
      <trkpt lat="45.6374" lon="4.57967">
        <ele>850</ele>
        <time>2022-07-26T08:15:50Z</time>
      </trkpt>
      <trkpt lat="45.63739" lon="4.58079">
        <ele>858</ele>
        <time>2022-07-26T08:16:04Z</time>
      </trkpt>
      <trkpt lat="45.63726" lon="4.58249">
        <ele>863</ele>
        <time>2022-07-26T08:16:25Z</time>
      </trkpt>
      <trkpt lat="45.63708" lon="4.58383">
        <ele>865</ele>
        <time>2022-07-26T08:16:42Z</time>
      </trkpt>
      <trkpt lat="45.6369" lon="4.58423">
        <ele>864</ele>
        <time>2022-07-26T08:16:48Z</time>
      </trkpt>
      <trkpt lat="45.63679" lon="4.58436">
        <ele>863</ele>
        <time>2022-07-26T08:16:50Z</time>
      </trkpt>
      <trkpt lat="45.63628" lon="4.58465">
        <ele>861</ele>
        <time>2022-07-26T08:17:00Z</time>
      </trkpt>
      <trkpt lat="45.6361" lon="4.58475">
        <ele>861</ele>
        <time>2022-07-26T08:17:04Z</time>
      </trkpt>
      <trkpt lat="45.63546" lon="4.58542">
        <ele>861</ele>
        <time>2022-07-26T08:17:18Z</time>
      </trkpt>
      <trkpt lat="45.63538" lon="4.58567">
        <ele>862</ele>
        <time>2022-07-26T08:17:21Z</time>
      </trkpt>
      <trkpt lat="45.63536" lon="4.58586">
        <ele>863</ele>
        <time>2022-07-26T08:17:24Z</time>
      </trkpt>
      <trkpt lat="45.63539" lon="4.58718">
        <ele>868</ele>
        <time>2022-07-26T08:17:40Z</time>
      </trkpt>
      <trkpt lat="45.63575" lon="4.5888">
        <ele>874</ele>
        <time>2022-07-26T08:18:01Z</time>
      </trkpt>
      <trkpt lat="45.63585" lon="4.5894">
        <ele>874</ele>
        <time>2022-07-26T08:18:09Z</time>
      </trkpt>
      <trkpt lat="45.63577" lon="4.59012">
        <ele>869</ele>
        <time>2022-07-26T08:18:18Z</time>
      </trkpt>
      <trkpt lat="45.63567" lon="4.59046">
        <ele>867</ele>
        <time>2022-07-26T08:18:23Z</time>
      </trkpt>
      <trkpt lat="45.63517" lon="4.59136">
        <ele>861</ele>
        <time>2022-07-26T08:18:37Z</time>
      </trkpt>
      <trkpt lat="45.63511" lon="4.59149">
        <ele>860</ele>
        <time>2022-07-26T08:18:39Z</time>
      </trkpt>
      <trkpt lat="45.63506" lon="4.59183">
        <ele>861</ele>
        <time>2022-07-26T08:18:43Z</time>
      </trkpt>
      <trkpt lat="45.63513" lon="4.59263">
        <ele>863</ele>
        <time>2022-07-26T08:18:53Z</time>
      </trkpt>
      <trkpt lat="45.63506" lon="4.59444">
        <ele>856</ele>
        <time>2022-07-26T08:19:16Z</time>
      </trkpt>
      <trkpt lat="45.63491" lon="4.59496">
        <ele>854</ele>
        <time>2022-07-26T08:19:23Z</time>
      </trkpt>
      <trkpt lat="45.63484" lon="4.59509">
        <ele>854</ele>
        <time>2022-07-26T08:19:25Z</time>
      </trkpt>
      <trkpt lat="45.6345" lon="4.59537">
        <ele>854</ele>
        <time>2022-07-26T08:19:32Z</time>
      </trkpt>
      <trkpt lat="45.63235" lon="4.59613">
        <ele>864</ele>
        <time>2022-07-26T08:20:11Z</time>
      </trkpt>
      <trkpt lat="45.63207" lon="4.59614">
        <ele>865</ele>
        <time>2022-07-26T08:20:16Z</time>
      </trkpt>
      <trkpt lat="45.63195" lon="4.59609">
        <ele>865</ele>
        <time>2022-07-26T08:20:19Z</time>
      </trkpt>
      <trkpt lat="45.63145" lon="4.59653">
        <ele>869</ele>
        <time>2022-07-26T08:20:30Z</time>
      </trkpt>
      <trkpt lat="45.63119" lon="4.59684">
        <ele>869</ele>
        <time>2022-07-26T08:20:36Z</time>
      </trkpt>
      <trkpt lat="45.6311" lon="4.59701">
        <ele>869</ele>
        <time>2022-07-26T08:20:38Z</time>
      </trkpt>
      <trkpt lat="45.6305" lon="4.5982">
        <ele>863</ele>
        <time>2022-07-26T08:20:57Z</time>
      </trkpt>
      <trkpt lat="45.63036" lon="4.5985">
        <ele>860</ele>
        <time>2022-07-26T08:21:01Z</time>
      </trkpt>
      <trkpt lat="45.6302" lon="4.59896">
        <ele>855</ele>
        <time>2022-07-26T08:21:08Z</time>
      </trkpt>
      <trkpt lat="45.63021" lon="4.59911">
        <ele>855</ele>
        <time>2022-07-26T08:21:10Z</time>
      </trkpt>
      <trkpt lat="45.63" lon="4.59991">
        <ele>847</ele>
        <time>2022-07-26T08:21:20Z</time>
      </trkpt>
      <trkpt lat="45.62984" lon="4.60029">
        <ele>845</ele>
        <time>2022-07-26T08:21:26Z</time>
      </trkpt>
      <trkpt lat="45.62981" lon="4.60035">
        <ele>845</ele>
        <time>2022-07-26T08:21:27Z</time>
      </trkpt>
      <trkpt lat="45.62955" lon="4.60039">
        <ele>843</ele>
        <time>2022-07-26T08:21:31Z</time>
      </trkpt>
      <trkpt lat="45.62953" lon="4.60027">
        <ele>843</ele>
        <time>2022-07-26T08:21:33Z</time>
      </trkpt>
      <trkpt lat="45.62934" lon="4.60003">
        <ele>841</ele>
        <time>2022-07-26T08:21:37Z</time>
      </trkpt>
      <trkpt lat="45.62926" lon="4.59998">
        <ele>840</ele>
        <time>2022-07-26T08:21:39Z</time>
      </trkpt>
      <trkpt lat="45.62862" lon="4.5999">
        <ele>835</ele>
        <time>2022-07-26T08:21:50Z</time>
      </trkpt>
      <trkpt lat="45.62603" lon="4.59994">
        <ele>823</ele>
        <time>2022-07-26T08:22:37Z</time>
      </trkpt>
      <trkpt lat="45.6252" lon="4.60031">
        <ele>825.2</ele>
        <time>2022-07-26T08:22:42Z</time>
      </trkpt>
      <trkpt lat="45.62436" lon="4.60035">
        <ele>825</ele>
      </trkpt>
      <trkpt lat="45.62334" lon="4.59911">
        <ele>826.7</ele>
      </trkpt>
      <trkpt lat="45.62238" lon="4.59739">
        <ele>837.7</ele>
      </trkpt>
      <trkpt lat="45.62205" lon="4.59538">
        <ele>849.7</ele>
      </trkpt>
      <trkpt lat="45.62103" lon="4.59413">
        <ele>863</ele>
      </trkpt>
      <trkpt lat="45.62031" lon="4.59126">
        <ele>861.8</ele>
      </trkpt>
      <trkpt lat="45.62067" lon="4.58997">
        <ele>856.7</ele>
      </trkpt>
      <trkpt lat="45.62187" lon="4.58817">
        <ele>842.6</ele>
      </trkpt>
      <trkpt lat="45.62208" lon="4.58731">
        <ele>843.7</ele>
      </trkpt>
      <trkpt lat="45.62166" lon="4.58658">
        <ele>840.3</ele>
      </trkpt>
      <trkpt lat="45.62061" lon="4.58679">
        <ele>832.8</ele>
      </trkpt>
      <trkpt lat="45.61929" lon="4.58525">
        <ele>818.3</ele>
      </trkpt>
      <trkpt lat="45.61845" lon="4.58314">
        <ele>806.2</ele>
      </trkpt>
      <trkpt lat="45.61671" lon="4.58087">
        <ele>792.4</ele>
      </trkpt>
      <trkpt lat="45.61584" lon="4.57881">
        <ele>785.9</ele>
      </trkpt>
      <trkpt lat="45.61515" lon="4.57808">
        <ele>783.9</ele>
      </trkpt>
      <trkpt lat="45.61392" lon="4.57409">
        <ele>773.1</ele>
      </trkpt>
      <trkpt lat="45.61299" lon="4.57293">
        <ele>759.9</ele>
      </trkpt>
      <trkpt lat="45.61188" lon="4.57224">
        <ele>750.7</ele>
      </trkpt>
      <trkpt lat="45.61014" lon="4.57048">
        <ele>744.3</ele>
      </trkpt>
      <trkpt lat="45.60978" lon="4.56842">
        <ele>735.8</ele>
      </trkpt>
      <trkpt lat="45.60896" lon="4.56572">
        <ele>721.4</ele>
      </trkpt>
      <trkpt lat="45.60824" lon="4.56606">
        <ele>716.3</ele>
      </trkpt>
      <trkpt lat="45.60758" lon="4.56568">
        <ele>708.7</ele>
      </trkpt>
      <trkpt lat="45.60725" lon="4.56473">
        <ele>705.2</ele>
      </trkpt>
      <trkpt lat="45.60458" lon="4.56435">
        <ele>712.6</ele>
      </trkpt>
      <trkpt lat="45.60278" lon="4.56598">
        <ele>710.6</ele>
      </trkpt>
      <trkpt lat="45.60167" lon="4.56658">
        <ele>704.4</ele>
      </trkpt>
      <trkpt lat="45.60104" lon="4.56817">
        <ele>701.2</ele>
      </trkpt>
      <trkpt lat="45.59993" lon="4.56868">
        <ele>695.8</ele>
      </trkpt>
      <trkpt lat="45.59952" lon="4.56954">
        <ele>696.4</ele>
        <time>2022-07-26T08:23:07Z</time>
      </trkpt>
      <trkpt lat="45.59948" lon="4.5697">
        <ele>700</ele>
        <time>2022-07-26T08:36:21Z</time>
      </trkpt>
      <trkpt lat="45.59987" lon="4.56851">
        <ele>693.2</ele>
      </trkpt>
      <trkpt lat="45.60027" lon="4.56702">
        <ele>689</ele>
        <time>2022-07-26T08:36:57Z</time>
      </trkpt>
      <trkpt lat="45.60053" lon="4.56616">
        <ele>686</ele>
        <time>2022-07-26T08:37:08Z</time>
      </trkpt>
      <trkpt lat="45.60074" lon="4.56564">
        <ele>684</ele>
        <time>2022-07-26T08:37:16Z</time>
      </trkpt>
      <trkpt lat="45.60126" lon="4.56456">
        <ele>682</ele>
        <time>2022-07-26T08:37:32Z</time>
      </trkpt>
      <trkpt lat="45.60187" lon="4.56292">
        <ele>677</ele>
        <time>2022-07-26T08:37:55Z</time>
      </trkpt>
      <trkpt lat="45.60209" lon="4.56253">
        <ele>676</ele>
        <time>2022-07-26T08:38:02Z</time>
      </trkpt>
      <trkpt lat="45.60235" lon="4.5622">
        <ele>674</ele>
        <time>2022-07-26T08:38:08Z</time>
      </trkpt>
      <trkpt lat="45.60259" lon="4.56198">
        <ele>674</ele>
        <time>2022-07-26T08:38:13Z</time>
      </trkpt>
      <trkpt lat="45.6037" lon="4.56116">
        <ele>673</ele>
        <time>2022-07-26T08:38:35Z</time>
      </trkpt>
      <trkpt lat="45.60406" lon="4.56075">
        <ele>673</ele>
        <time>2022-07-26T08:38:43Z</time>
      </trkpt>
      <trkpt lat="45.60477" lon="4.55976">
        <ele>674</ele>
        <time>2022-07-26T08:39:01Z</time>
      </trkpt>
      <trkpt lat="45.60536" lon="4.55929">
        <ele>669</ele>
        <time>2022-07-26T08:39:13Z</time>
      </trkpt>
      <trkpt lat="45.60594" lon="4.55878">
        <ele>665</ele>
        <time>2022-07-26T08:39:25Z</time>
      </trkpt>
      <trkpt lat="45.60615" lon="4.55867">
        <ele>665</ele>
        <time>2022-07-26T08:39:29Z</time>
      </trkpt>
      <trkpt lat="45.60628" lon="4.55865">
        <ele>665</ele>
        <time>2022-07-26T08:39:31Z</time>
      </trkpt>
      <trkpt lat="45.60711" lon="4.55863">
        <ele>665</ele>
        <time>2022-07-26T08:39:46Z</time>
      </trkpt>
      <trkpt lat="45.61015" lon="4.55777">
        <ele>658</ele>
        <time>2022-07-26T08:40:41Z</time>
      </trkpt>
      <trkpt lat="45.61052" lon="4.55775">
        <ele>658</ele>
        <time>2022-07-26T08:40:48Z</time>
      </trkpt>
      <trkpt lat="45.61087" lon="4.55782">
        <ele>658</ele>
        <time>2022-07-26T08:40:54Z</time>
      </trkpt>
      <trkpt lat="45.61186" lon="4.5585">
        <ele>657</ele>
        <time>2022-07-26T08:41:14Z</time>
      </trkpt>
      <trkpt lat="45.6122" lon="4.5586">
        <ele>656</ele>
        <time>2022-07-26T08:41:20Z</time>
      </trkpt>
      <trkpt lat="45.61253" lon="4.5586">
        <ele>654</ele>
        <time>2022-07-26T08:41:26Z</time>
      </trkpt>
      <trkpt lat="45.61266" lon="4.55857">
        <ele>654</ele>
        <time>2022-07-26T08:41:28Z</time>
      </trkpt>
      <trkpt lat="45.61273" lon="4.55854">
        <ele>654</ele>
        <time>2022-07-26T08:41:29Z</time>
      </trkpt>
      <trkpt lat="45.6131" lon="4.55829">
        <ele>654</ele>
        <time>2022-07-26T08:41:37Z</time>
      </trkpt>
      <trkpt lat="45.61372" lon="4.55753">
        <ele>655</ele>
        <time>2022-07-26T08:41:51Z</time>
      </trkpt>
      <trkpt lat="45.61393" lon="4.55743">
        <ele>656</ele>
        <time>2022-07-26T08:41:55Z</time>
      </trkpt>
      <trkpt lat="45.61418" lon="4.55735">
        <ele>658</ele>
        <time>2022-07-26T08:42:00Z</time>
      </trkpt>
      <trkpt lat="45.61453" lon="4.55709">
        <ele>660</ele>
        <time>2022-07-26T08:42:07Z</time>
      </trkpt>
      <trkpt lat="45.61467" lon="4.55693">
        <ele>661</ele>
        <time>2022-07-26T08:42:10Z</time>
      </trkpt>
      <trkpt lat="45.6149" lon="4.55658">
        <ele>660</ele>
        <time>2022-07-26T08:42:16Z</time>
      </trkpt>
      <trkpt lat="45.6151" lon="4.55625">
        <ele>660</ele>
        <time>2022-07-26T08:42:21Z</time>
      </trkpt>
      <trkpt lat="45.61526" lon="4.5559">
        <ele>661</ele>
        <time>2022-07-26T08:42:26Z</time>
      </trkpt>
      <trkpt lat="45.6154" lon="4.55555">
        <ele>663</ele>
        <time>2022-07-26T08:42:31Z</time>
      </trkpt>
      <trkpt lat="45.61555" lon="4.555">
        <ele>660</ele>
        <time>2022-07-26T08:42:39Z</time>
      </trkpt>
      <trkpt lat="45.61568" lon="4.55469">
        <ele>659</ele>
        <time>2022-07-26T08:42:43Z</time>
      </trkpt>
      <trkpt lat="45.61581" lon="4.55444">
        <ele>657</ele>
        <time>2022-07-26T08:42:47Z</time>
      </trkpt>
      <trkpt lat="45.61602" lon="4.5542">
        <ele>655</ele>
        <time>2022-07-26T08:42:52Z</time>
      </trkpt>
      <trkpt lat="45.61625" lon="4.55402">
        <ele>655</ele>
        <time>2022-07-26T08:42:57Z</time>
      </trkpt>
      <trkpt lat="45.61711" lon="4.5538">
        <ele>656</ele>
        <time>2022-07-26T08:43:12Z</time>
      </trkpt>
      <trkpt lat="45.61742" lon="4.5538">
        <ele>658</ele>
        <time>2022-07-26T08:43:18Z</time>
      </trkpt>
      <trkpt lat="45.61775" lon="4.5537">
        <ele>657</ele>
        <time>2022-07-26T08:43:24Z</time>
      </trkpt>
      <trkpt lat="45.61801" lon="4.55351">
        <ele>654</ele>
        <time>2022-07-26T08:43:29Z</time>
      </trkpt>
      <trkpt lat="45.61838" lon="4.55319">
        <ele>651</ele>
        <time>2022-07-26T08:43:37Z</time>
      </trkpt>
      <trkpt lat="45.61849" lon="4.55313">
        <ele>650</ele>
        <time>2022-07-26T08:43:39Z</time>
      </trkpt>
      <trkpt lat="45.6188" lon="4.55306">
        <ele>647</ele>
        <time>2022-07-26T08:43:44Z</time>
      </trkpt>
      <trkpt lat="45.61895" lon="4.5531">
        <ele>647</ele>
        <time>2022-07-26T08:43:47Z</time>
      </trkpt>
      <trkpt lat="45.61912" lon="4.55321">
        <ele>647</ele>
        <time>2022-07-26T08:43:50Z</time>
      </trkpt>
      <trkpt lat="45.61926" lon="4.55336">
        <ele>647</ele>
        <time>2022-07-26T08:43:53Z</time>
      </trkpt>
      <trkpt lat="45.61984" lon="4.55448">
        <ele>648</ele>
        <time>2022-07-26T08:44:11Z</time>
      </trkpt>
      <trkpt lat="45.62" lon="4.55469">
        <ele>647</ele>
        <time>2022-07-26T08:44:15Z</time>
      </trkpt>
      <trkpt lat="45.62033" lon="4.55496">
        <ele>644</ele>
        <time>2022-07-26T08:44:21Z</time>
      </trkpt>
      <trkpt lat="45.62053" lon="4.55508">
        <ele>641</ele>
        <time>2022-07-26T08:44:25Z</time>
      </trkpt>
      <trkpt lat="45.62074" lon="4.55512">
        <ele>637</ele>
        <time>2022-07-26T08:44:29Z</time>
      </trkpt>
      <trkpt lat="45.621" lon="4.5551">
        <ele>634</ele>
        <time>2022-07-26T08:44:34Z</time>
      </trkpt>
      <trkpt lat="45.62126" lon="4.55503">
        <ele>631</ele>
        <time>2022-07-26T08:44:38Z</time>
      </trkpt>
      <trkpt lat="45.62406" lon="4.55376">
        <ele>629</ele>
        <time>2022-07-26T08:45:31Z</time>
      </trkpt>
      <trkpt lat="45.62447" lon="4.5536">
        <ele>626</ele>
        <time>2022-07-26T08:45:38Z</time>
      </trkpt>
      <trkpt lat="45.6249" lon="4.55356">
        <ele>623</ele>
        <time>2022-07-26T08:45:46Z</time>
      </trkpt>
      <trkpt lat="45.62498" lon="4.55354">
        <ele>623</ele>
        <time>2022-07-26T08:45:47Z</time>
      </trkpt>
      <trkpt lat="45.62505" lon="4.5535">
        <ele>622</ele>
        <time>2022-07-26T08:45:49Z</time>
      </trkpt>
      <trkpt lat="45.62515" lon="4.5534">
        <ele>622</ele>
        <time>2022-07-26T08:45:51Z</time>
      </trkpt>
      <trkpt lat="45.62526" lon="4.55321">
        <ele>622</ele>
        <time>2022-07-26T08:45:54Z</time>
      </trkpt>
      <trkpt lat="45.62535" lon="4.55296">
        <ele>623</ele>
        <time>2022-07-26T08:45:57Z</time>
      </trkpt>
      <trkpt lat="45.62578" lon="4.55151">
        <ele>625</ele>
        <time>2022-07-26T08:46:17Z</time>
      </trkpt>
      <trkpt lat="45.62601" lon="4.55083">
        <ele>623</ele>
        <time>2022-07-26T08:46:26Z</time>
      </trkpt>
      <trkpt lat="45.62684" lon="4.54894">
        <ele>623</ele>
        <time>2022-07-26T08:46:54Z</time>
      </trkpt>
      <trkpt lat="45.6276" lon="4.54763">
        <ele>619</ele>
        <time>2022-07-26T08:47:15Z</time>
      </trkpt>
      <trkpt lat="45.62774" lon="4.54714">
        <ele>618</ele>
        <time>2022-07-26T08:47:22Z</time>
      </trkpt>
      <trkpt lat="45.62775" lon="4.54662">
        <ele>616</ele>
        <time>2022-07-26T08:47:28Z</time>
      </trkpt>
      <trkpt lat="45.62746" lon="4.54516">
        <ele>615</ele>
        <time>2022-07-26T08:47:47Z</time>
      </trkpt>
      <trkpt lat="45.62729" lon="4.54466">
        <ele>619</ele>
        <time>2022-07-26T08:47:54Z</time>
      </trkpt>
      <trkpt lat="45.62692" lon="4.54391">
        <ele>620</ele>
        <time>2022-07-26T08:48:06Z</time>
      </trkpt>
      <trkpt lat="45.62676" lon="4.5435">
        <ele>619</ele>
        <time>2022-07-26T08:48:11Z</time>
      </trkpt>
      <trkpt lat="45.62645" lon="4.54134">
        <ele>617</ele>
        <time>2022-07-26T08:48:39Z</time>
      </trkpt>
      <trkpt lat="45.62614" lon="4.54035">
        <ele>612</ele>
        <time>2022-07-26T08:48:52Z</time>
      </trkpt>
      <trkpt lat="45.62604" lon="4.53998">
        <ele>610</ele>
        <time>2022-07-26T08:48:57Z</time>
      </trkpt>
      <trkpt lat="45.62599" lon="4.53965">
        <ele>609</ele>
        <time>2022-07-26T08:49:02Z</time>
      </trkpt>
      <trkpt lat="45.62599" lon="4.53936">
        <ele>608</ele>
        <time>2022-07-26T08:49:05Z</time>
      </trkpt>
      <trkpt lat="45.626" lon="4.53919">
        <ele>608</ele>
        <time>2022-07-26T08:49:07Z</time>
      </trkpt>
      <trkpt lat="45.62609" lon="4.53881">
        <ele>606</ele>
        <time>2022-07-26T08:49:12Z</time>
      </trkpt>
      <trkpt lat="45.62623" lon="4.53846">
        <ele>605</ele>
        <time>2022-07-26T08:49:17Z</time>
      </trkpt>
      <trkpt lat="45.62685" lon="4.53746">
        <ele>601</ele>
        <time>2022-07-26T08:49:34Z</time>
      </trkpt>
      <trkpt lat="45.62704" lon="4.53696">
        <ele>599</ele>
        <time>2022-07-26T08:49:41Z</time>
      </trkpt>
      <trkpt lat="45.62828" lon="4.53214">
        <ele>592</ele>
        <time>2022-07-26T08:50:45Z</time>
      </trkpt>
      <trkpt lat="45.62834" lon="4.53183">
        <ele>592</ele>
        <time>2022-07-26T08:50:49Z</time>
      </trkpt>
      <trkpt lat="45.62832" lon="4.53127">
        <ele>595</ele>
        <time>2022-07-26T08:50:56Z</time>
      </trkpt>
      <trkpt lat="45.62821" lon="4.53102">
        <ele>595</ele>
        <time>2022-07-26T08:51:00Z</time>
      </trkpt>
      <trkpt lat="45.62806" lon="4.53083">
        <ele>595</ele>
        <time>2022-07-26T08:51:03Z</time>
      </trkpt>
      <trkpt lat="45.62759" lon="4.53044">
        <ele>591</ele>
        <time>2022-07-26T08:51:13Z</time>
      </trkpt>
      <trkpt lat="45.62744" lon="4.53021">
        <ele>590</ele>
        <time>2022-07-26T08:51:17Z</time>
      </trkpt>
      <trkpt lat="45.62733" lon="4.52974">
        <ele>590</ele>
        <time>2022-07-26T08:51:23Z</time>
      </trkpt>
      <trkpt lat="45.62729" lon="4.52949">
        <ele>589</ele>
        <time>2022-07-26T08:51:26Z</time>
      </trkpt>
      <trkpt lat="45.62728" lon="4.52929">
        <ele>589</ele>
        <time>2022-07-26T08:51:29Z</time>
      </trkpt>
      <trkpt lat="45.62735" lon="4.52881">
        <ele>589</ele>
        <time>2022-07-26T08:51:35Z</time>
      </trkpt>
      <trkpt lat="45.62754" lon="4.52801">
        <ele>589</ele>
        <time>2022-07-26T08:51:45Z</time>
      </trkpt>
      <trkpt lat="45.62778" lon="4.5272">
        <ele>591</ele>
        <time>2022-07-26T08:51:56Z</time>
      </trkpt>
      <trkpt lat="45.62817" lon="4.52562">
        <ele>584</ele>
        <time>2022-07-26T08:52:17Z</time>
      </trkpt>
      <trkpt lat="45.62821" lon="4.52542">
        <ele>584</ele>
        <time>2022-07-26T08:52:20Z</time>
      </trkpt>
      <trkpt lat="45.62826" lon="4.52509">
        <ele>582</ele>
        <time>2022-07-26T08:52:24Z</time>
      </trkpt>
      <trkpt lat="45.62828" lon="4.5251">
        <ele>582</ele>
        <time>2022-07-26T08:52:24Z</time>
      </trkpt>
      <trkpt lat="45.62859" lon="4.52525">
        <ele>584</ele>
        <time>2022-07-26T08:52:30Z</time>
      </trkpt>
      <trkpt lat="45.62871" lon="4.52528">
        <ele>584</ele>
        <time>2022-07-26T08:52:32Z</time>
      </trkpt>
      <trkpt lat="45.6287" lon="4.52534">
        <ele>584</ele>
        <time>2022-07-26T08:52:33Z</time>
      </trkpt>
      <trkpt lat="45.62878" lon="4.52546">
        <ele>584</ele>
        <time>2022-07-26T08:52:35Z</time>
      </trkpt>
      <trkpt lat="45.62961" lon="4.52666">
        <ele>587</ele>
        <time>2022-07-26T08:52:56Z</time>
      </trkpt>
      <trkpt lat="45.63" lon="4.5269">
        <ele>584</ele>
        <time>2022-07-26T08:53:03Z</time>
      </trkpt>
      <trkpt lat="45.63143" lon="4.52726">
        <ele>588</ele>
        <time>2022-07-26T08:53:29Z</time>
      </trkpt>
      <trkpt lat="45.63171" lon="4.52725">
        <ele>589</ele>
        <time>2022-07-26T08:53:34Z</time>
      </trkpt>
      <trkpt lat="45.63198" lon="4.5272">
        <ele>591</ele>
        <time>2022-07-26T08:53:39Z</time>
      </trkpt>
      <trkpt lat="45.63231" lon="4.52699">
        <ele>591</ele>
        <time>2022-07-26T08:53:46Z</time>
      </trkpt>
      <trkpt lat="45.63293" lon="4.52674">
        <ele>589</ele>
        <time>2022-07-26T08:53:57Z</time>
      </trkpt>
      <trkpt lat="45.63335" lon="4.52672">
        <ele>588</ele>
        <time>2022-07-26T08:54:05Z</time>
      </trkpt>
      <trkpt lat="45.63443" lon="4.52695">
        <ele>593</ele>
        <time>2022-07-26T08:54:24Z</time>
      </trkpt>
      <trkpt lat="45.63483" lon="4.52716">
        <ele>594</ele>
        <time>2022-07-26T08:54:32Z</time>
      </trkpt>
      <trkpt lat="45.63508" lon="4.52744">
        <ele>592.7</ele>
      </trkpt>
      <trkpt lat="45.63518" lon="4.5278">
        <ele>597</ele>
        <time>2022-07-26T08:54:42Z</time>
      </trkpt>
      <trkpt lat="45.63537" lon="4.52865">
        <ele>599</ele>
        <time>2022-07-26T08:54:53Z</time>
      </trkpt>
      <trkpt lat="45.63548" lon="4.52897">
        <ele>599</ele>
        <time>2022-07-26T08:54:58Z</time>
      </trkpt>
      <trkpt lat="45.63635" lon="4.53001">
        <ele>597</ele>
        <time>2022-07-26T08:55:18Z</time>
      </trkpt>
      <trkpt lat="45.63675" lon="4.5309">
        <ele>598</ele>
        <time>2022-07-26T08:55:31Z</time>
      </trkpt>
      <trkpt lat="45.63701" lon="4.53111">
        <ele>599</ele>
        <time>2022-07-26T08:55:36Z</time>
      </trkpt>
      <trkpt lat="45.63728" lon="4.53128">
        <ele>598</ele>
        <time>2022-07-26T08:55:41Z</time>
      </trkpt>
      <trkpt lat="45.63762" lon="4.5316">
        <ele>598</ele>
        <time>2022-07-26T08:55:49Z</time>
      </trkpt>
      <trkpt lat="45.63797" lon="4.53246">
        <ele>600</ele>
        <time>2022-07-26T08:56:01Z</time>
      </trkpt>
      <trkpt lat="45.6382" lon="4.53267">
        <ele>601</ele>
        <time>2022-07-26T08:56:06Z</time>
      </trkpt>
      <trkpt lat="45.63842" lon="4.53279">
        <ele>602</ele>
        <time>2022-07-26T08:56:10Z</time>
      </trkpt>
      <trkpt lat="45.63902" lon="4.53284">
        <ele>601</ele>
        <time>2022-07-26T08:56:21Z</time>
      </trkpt>
      <trkpt lat="45.63925" lon="4.53292">
        <ele>601</ele>
        <time>2022-07-26T08:56:25Z</time>
      </trkpt>
      <trkpt lat="45.63954" lon="4.53314">
        <ele>601</ele>
        <time>2022-07-26T08:56:31Z</time>
      </trkpt>
      <trkpt lat="45.63981" lon="4.5336">
        <ele>604</ele>
        <time>2022-07-26T08:56:38Z</time>
      </trkpt>
      <trkpt lat="45.64005" lon="4.53383">
        <ele>606</ele>
        <time>2022-07-26T08:56:43Z</time>
      </trkpt>
      <trkpt lat="45.64059" lon="4.53403">
        <ele>605</ele>
        <time>2022-07-26T08:56:53Z</time>
      </trkpt>
      <trkpt lat="45.64086" lon="4.53423">
        <ele>606</ele>
        <time>2022-07-26T08:56:59Z</time>
      </trkpt>
      <trkpt lat="45.64151" lon="4.53496">
        <ele>611</ele>
        <time>2022-07-26T08:57:13Z</time>
      </trkpt>
      <trkpt lat="45.64182" lon="4.53523">
        <ele>613</ele>
        <time>2022-07-26T08:57:20Z</time>
      </trkpt>
      <trkpt lat="45.64215" lon="4.53523">
        <ele>613</ele>
        <time>2022-07-26T08:57:26Z</time>
      </trkpt>
      <trkpt lat="45.64283" lon="4.53498">
        <ele>614</ele>
        <time>2022-07-26T08:57:38Z</time>
      </trkpt>
      <trkpt lat="45.64285" lon="4.53505">
        <ele>615</ele>
        <time>2022-07-26T08:57:39Z</time>
      </trkpt>
      <trkpt lat="45.64349" lon="4.53524">
        <ele>620</ele>
        <time>2022-07-26T08:57:51Z</time>
      </trkpt>
      <trkpt lat="45.64369" lon="4.53546">
        <ele>622</ele>
        <time>2022-07-26T08:57:55Z</time>
      </trkpt>
      <trkpt lat="45.64397" lon="4.53607">
        <ele>630</ele>
        <time>2022-07-26T08:58:04Z</time>
      </trkpt>
      <trkpt lat="45.64431" lon="4.53649">
        <ele>637</ele>
        <time>2022-07-26T08:58:12Z</time>
      </trkpt>
      <trkpt lat="45.64546" lon="4.53704">
        <ele>636</ele>
        <time>2022-07-26T08:58:34Z</time>
      </trkpt>
      <trkpt lat="45.64581" lon="4.53732">
        <ele>636</ele>
        <time>2022-07-26T08:58:41Z</time>
      </trkpt>
      <trkpt lat="45.64589" lon="4.53756">
        <ele>638</ele>
        <time>2022-07-26T08:58:44Z</time>
      </trkpt>
      <trkpt lat="45.64637" lon="4.53822">
        <ele>642</ele>
        <time>2022-07-26T08:58:56Z</time>
      </trkpt>
      <trkpt lat="45.64643" lon="4.53849">
        <ele>644</ele>
        <time>2022-07-26T08:59:00Z</time>
      </trkpt>
      <trkpt lat="45.64653" lon="4.53872">
        <ele>644</ele>
        <time>2022-07-26T08:59:03Z</time>
      </trkpt>
      <trkpt lat="45.64662" lon="4.53884">
        <ele>643</ele>
        <time>2022-07-26T08:59:05Z</time>
      </trkpt>
      <trkpt lat="45.6468" lon="4.53896">
        <ele>640</ele>
        <time>2022-07-26T08:59:09Z</time>
      </trkpt>
      <trkpt lat="45.64703" lon="4.53965">
        <ele>639</ele>
        <time>2022-07-26T08:59:18Z</time>
      </trkpt>
      <trkpt lat="45.64728" lon="4.53979">
        <ele>634</ele>
        <time>2022-07-26T08:59:23Z</time>
      </trkpt>
      <trkpt lat="45.64773" lon="4.54042">
        <ele>635</ele>
        <time>2022-07-26T08:59:34Z</time>
      </trkpt>
      <trkpt lat="45.64796" lon="4.54091">
        <ele>639</ele>
        <time>2022-07-26T08:59:42Z</time>
      </trkpt>
      <trkpt lat="45.64825" lon="4.54126">
        <ele>641</ele>
        <time>2022-07-26T08:59:48Z</time>
      </trkpt>
      <trkpt lat="45.64855" lon="4.54137">
        <ele>642</ele>
        <time>2022-07-26T08:59:54Z</time>
      </trkpt>
      <trkpt lat="45.64892" lon="4.54132">
        <ele>642</ele>
        <time>2022-07-26T09:00:01Z</time>
      </trkpt>
      <trkpt lat="45.64916" lon="4.54114">
        <ele>642</ele>
        <time>2022-07-26T09:00:05Z</time>
      </trkpt>
      <trkpt lat="45.64939" lon="4.54084">
        <ele>645</ele>
        <time>2022-07-26T09:00:11Z</time>
      </trkpt>
      <trkpt lat="45.64965" lon="4.54004">
        <ele>647</ele>
        <time>2022-07-26T09:00:22Z</time>
      </trkpt>
      <trkpt lat="45.65001" lon="4.5397">
        <ele>648</ele>
        <time>2022-07-26T09:00:30Z</time>
      </trkpt>
      <trkpt lat="45.65027" lon="4.53957">
        <ele>647</ele>
        <time>2022-07-26T09:00:35Z</time>
      </trkpt>
      <trkpt lat="45.65052" lon="4.53957">
        <ele>647</ele>
        <time>2022-07-26T09:00:39Z</time>
      </trkpt>
      <trkpt lat="45.65092" lon="4.53975">
        <ele>649</ele>
        <time>2022-07-26T09:00:46Z</time>
      </trkpt>
      <trkpt lat="45.65114" lon="4.53995">
        <ele>648</ele>
        <time>2022-07-26T09:00:51Z</time>
      </trkpt>
      <trkpt lat="45.65178" lon="4.54087">
        <ele>654</ele>
        <time>2022-07-26T09:01:07Z</time>
      </trkpt>
      <trkpt lat="45.65203" lon="4.5415">
        <ele>655</ele>
        <time>2022-07-26T09:01:16Z</time>
      </trkpt>
      <trkpt lat="45.65206" lon="4.54192">
        <ele>657</ele>
        <time>2022-07-26T09:01:22Z</time>
      </trkpt>
      <trkpt lat="45.6519" lon="4.54284">
        <ele>663</ele>
        <time>2022-07-26T09:01:33Z</time>
      </trkpt>
      <trkpt lat="45.65184" lon="4.54317">
        <ele>663</ele>
        <time>2022-07-26T09:01:38Z</time>
      </trkpt>
      <trkpt lat="45.65186" lon="4.54367">
        <ele>661</ele>
        <time>2022-07-26T09:01:44Z</time>
      </trkpt>
      <trkpt lat="45.65199" lon="4.54412">
        <ele>659</ele>
        <time>2022-07-26T09:01:50Z</time>
      </trkpt>
      <trkpt lat="45.65227" lon="4.54479">
        <ele>661</ele>
        <time>2022-07-26T09:02:00Z</time>
      </trkpt>
      <trkpt lat="45.65244" lon="4.54501">
        <ele>661</ele>
        <time>2022-07-26T09:02:04Z</time>
      </trkpt>
      <trkpt lat="45.65261" lon="4.54512">
        <ele>663</ele>
        <time>2022-07-26T09:02:07Z</time>
      </trkpt>
      <trkpt lat="45.65293" lon="4.54513">
        <ele>665</ele>
        <time>2022-07-26T09:02:13Z</time>
      </trkpt>
      <trkpt lat="45.65339" lon="4.54501">
        <ele>666</ele>
        <time>2022-07-26T09:02:21Z</time>
      </trkpt>
      <trkpt lat="45.65355" lon="4.54505">
        <ele>665</ele>
        <time>2022-07-26T09:02:24Z</time>
      </trkpt>
      <trkpt lat="45.6538" lon="4.54524">
        <ele>665</ele>
        <time>2022-07-26T09:02:29Z</time>
      </trkpt>
      <trkpt lat="45.65398" lon="4.54558">
        <ele>665</ele>
        <time>2022-07-26T09:02:34Z</time>
      </trkpt>
      <trkpt lat="45.65411" lon="4.54611">
        <ele>668</ele>
        <time>2022-07-26T09:02:41Z</time>
      </trkpt>
      <trkpt lat="45.65431" lon="4.54655">
        <ele>672</ele>
        <time>2022-07-26T09:02:48Z</time>
      </trkpt>
      <trkpt lat="45.65455" lon="4.54695">
        <ele>674</ele>
        <time>2022-07-26T09:02:54Z</time>
      </trkpt>
      <trkpt lat="45.65469" lon="4.54726">
        <ele>675</ele>
        <time>2022-07-26T09:02:59Z</time>
      </trkpt>
      <trkpt lat="45.65477" lon="4.54752">
        <ele>676</ele>
        <time>2022-07-26T09:03:02Z</time>
      </trkpt>
      <trkpt lat="45.65477" lon="4.54809">
        <ele>677</ele>
        <time>2022-07-26T09:03:09Z</time>
      </trkpt>
      <trkpt lat="45.6547" lon="4.5484">
        <ele>679</ele>
        <time>2022-07-26T09:03:14Z</time>
      </trkpt>
      <trkpt lat="45.65469" lon="4.54881">
        <ele>682</ele>
        <time>2022-07-26T09:03:19Z</time>
      </trkpt>
      <trkpt lat="45.65479" lon="4.54966">
        <ele>688</ele>
        <time>2022-07-26T09:03:29Z</time>
      </trkpt>
      <trkpt lat="45.65469" lon="4.55027">
        <ele>691</ele>
        <time>2022-07-26T09:03:37Z</time>
      </trkpt>
      <trkpt lat="45.65453" lon="4.55065">
        <ele>692</ele>
        <time>2022-07-26T09:03:43Z</time>
      </trkpt>
      <trkpt lat="45.6543" lon="4.55087">
        <ele>692</ele>
        <time>2022-07-26T09:03:48Z</time>
      </trkpt>
      <trkpt lat="45.65359" lon="4.55115">
        <ele>695</ele>
        <time>2022-07-26T09:04:01Z</time>
      </trkpt>
      <trkpt lat="45.65333" lon="4.55135">
        <ele>696</ele>
        <time>2022-07-26T09:04:06Z</time>
      </trkpt>
      <trkpt lat="45.65321" lon="4.55156">
        <ele>692.7</ele>
      </trkpt>
      <trkpt lat="45.65317" lon="4.55189">
        <ele>696</ele>
        <time>2022-07-26T09:04:13Z</time>
      </trkpt>
      <trkpt lat="45.65319" lon="4.55241">
        <ele>695</ele>
        <time>2022-07-26T09:04:20Z</time>
      </trkpt>
      <trkpt lat="45.65339" lon="4.55288">
        <ele>697</ele>
        <time>2022-07-26T09:04:27Z</time>
      </trkpt>
      <trkpt lat="45.65389" lon="4.55317">
        <ele>697</ele>
        <time>2022-07-26T09:04:37Z</time>
      </trkpt>
      <trkpt lat="45.65437" lon="4.55307">
        <ele>694</ele>
        <time>2022-07-26T09:04:45Z</time>
      </trkpt>
      <trkpt lat="45.65456" lon="4.55307">
        <ele>693</ele>
        <time>2022-07-26T09:04:49Z</time>
      </trkpt>
      <trkpt lat="45.65502" lon="4.5532">
        <ele>694</ele>
        <time>2022-07-26T09:04:57Z</time>
      </trkpt>
      <trkpt lat="45.65542" lon="4.55355">
        <ele>695</ele>
        <time>2022-07-26T09:05:05Z</time>
      </trkpt>
      <trkpt lat="45.65585" lon="4.55421">
        <ele>698</ele>
        <time>2022-07-26T09:05:17Z</time>
      </trkpt>
      <trkpt lat="45.65593" lon="4.55442">
        <ele>699</ele>
        <time>2022-07-26T09:05:20Z</time>
      </trkpt>
      <trkpt lat="45.65614" lon="4.55559">
        <ele>705</ele>
        <time>2022-07-26T09:05:35Z</time>
      </trkpt>
      <trkpt lat="45.65615" lon="4.55595">
        <ele>707</ele>
        <time>2022-07-26T09:05:39Z</time>
      </trkpt>
      <trkpt lat="45.65611" lon="4.55632">
        <ele>708</ele>
        <time>2022-07-26T09:05:44Z</time>
      </trkpt>
      <trkpt lat="45.65608" lon="4.55674">
        <ele>708</ele>
        <time>2022-07-26T09:05:49Z</time>
      </trkpt>
      <trkpt lat="45.65611" lon="4.55703">
        <ele>709</ele>
        <time>2022-07-26T09:05:53Z</time>
      </trkpt>
      <trkpt lat="45.65651" lon="4.55812">
        <ele>710</ele>
        <time>2022-07-26T09:06:08Z</time>
      </trkpt>
      <trkpt lat="45.65657" lon="4.55845">
        <ele>711</ele>
        <time>2022-07-26T09:06:12Z</time>
      </trkpt>
      <trkpt lat="45.65655" lon="4.55888">
        <ele>712</ele>
        <time>2022-07-26T09:06:18Z</time>
      </trkpt>
      <trkpt lat="45.65643" lon="4.55927">
        <ele>714</ele>
        <time>2022-07-26T09:06:23Z</time>
      </trkpt>
      <trkpt lat="45.65623" lon="4.55958">
        <ele>716</ele>
        <time>2022-07-26T09:06:28Z</time>
      </trkpt>
      <trkpt lat="45.65588" lon="4.56">
        <ele>718</ele>
        <time>2022-07-26T09:06:36Z</time>
      </trkpt>
      <trkpt lat="45.65571" lon="4.56042">
        <ele>721</ele>
        <time>2022-07-26T09:06:42Z</time>
      </trkpt>
      <trkpt lat="45.65568" lon="4.56052">
        <ele>721</ele>
        <time>2022-07-26T09:06:44Z</time>
      </trkpt>
      <trkpt lat="45.65566" lon="4.56076">
        <ele>721</ele>
        <time>2022-07-26T09:06:47Z</time>
      </trkpt>
      <trkpt lat="45.6557" lon="4.56103">
        <ele>721</ele>
        <time>2022-07-26T09:06:50Z</time>
      </trkpt>
      <trkpt lat="45.6558" lon="4.56126">
        <ele>721</ele>
        <time>2022-07-26T09:06:53Z</time>
      </trkpt>
      <trkpt lat="45.65597" lon="4.56146">
        <ele>720</ele>
        <time>2022-07-26T09:06:57Z</time>
      </trkpt>
      <trkpt lat="45.65644" lon="4.56174">
        <ele>719</ele>
        <time>2022-07-26T09:07:06Z</time>
      </trkpt>
      <trkpt lat="45.65665" lon="4.56195">
        <ele>720</ele>
        <time>2022-07-26T09:07:11Z</time>
      </trkpt>
      <trkpt lat="45.65733" lon="4.56301">
        <ele>723</ele>
        <time>2022-07-26T09:07:29Z</time>
      </trkpt>
      <trkpt lat="45.65747" lon="4.56334">
        <ele>725</ele>
        <time>2022-07-26T09:07:34Z</time>
      </trkpt>
      <trkpt lat="45.65753" lon="4.56341">
        <ele>725</ele>
        <time>2022-07-26T09:07:35Z</time>
      </trkpt>
      <trkpt lat="45.65884" lon="4.56413">
        <ele>724.7</ele>
        <time>2022-07-26T09:07:47Z</time>
      </trkpt>
      <trkpt lat="45.65873" lon="4.56396">
        <ele>726</ele>
        <time>2022-07-26T08:04:51Z</time>
      </trkpt>
      <trkpt lat="45.65879" lon="4.56404">
        <ele>727</ele>
        <time>2022-07-26T08:04:52Z</time>
      </trkpt>
      <trkpt lat="45.65881" lon="4.56411">
        <ele>727</ele>
        <time>2022-07-26T08:04:53Z</time>
      </trkpt>
    </trkseg>
  </trk>
</gpx>